Time;durP1;ratioP1;P1;durP2;ratioP2;P2;SDS_P1;SDS_P2;PMS_P1;PMS_P2;Temp;Humidity;BMP_temperature;BMP_pressure;BME280_temperature;BME280_humidity;BME280_pressure;Samples;Min_cycle;Max_cycle;Signal;HPM_P1;HPM_P2
2022/10/02 00:02:19;;;;;;;10.25;2.38;;;14.30;99.90;;;;;;5120017;28;20047;-76
2022/10/02 00:05:02;;;;;;;10.27;2.20;;;14.30;99.90;;;;;;5153449;27;20399;-76
2022/10/02 00:07:40;;;;;;;9.82;2.72;;;14.00;99.90;;;;;;5120014;28;20122;-76
2022/10/02 00:10:15;;;;;;;19.63;3.50;;;14.10;99.90;;;;;;5119940;28;20031;-77
2022/10/02 00:12:42;;;;;;;16.33;3.50;;;14.00;99.90;;;;;;5118833;28;20047;-76
2022/10/02 00:15:21;;;;;;;22.05;3.80;;;14.00;99.90;;;;;;5119826;28;20048;-76
2022/10/02 00:17:50;;;;;;;13.68;3.35;;;14.20;99.90;;;;;;5119523;27;20044;-76
2022/10/02 00:20:18;;;;;;;11.07;2.88;;;14.10;99.90;;;;;;5119687;28;20127;-76
2022/10/02 00:23:14;;;;;;;13.07;3.72;;;14.00;99.90;;;;;;5118231;28;20044;-76
2022/10/02 00:25:47;;;;;;;13.32;2.65;;;14.00;99.90;;;;;;5119653;28;20054;-76
2022/10/02 00:28:24;;;;;;;11.90;2.72;;;14.00;99.90;;;;;;5119615;28;20032;-76
2022/10/02 00:31:15;;;;;;;7.50;2.25;;;14.00;99.90;;;;;;5119237;28;20045;-76
2022/10/02 00:33:55;;;;;;;13.57;2.83;;;14.00;99.90;;;;;;5119231;28;20051;-76
2022/10/02 00:36:36;;;;;;;13.48;2.97;;;14.00;99.90;;;;;;5117963;28;20065;-76
2022/10/02 00:39:46;;;;;;;22.02;3.80;;;14.00;99.90;;;;;;5152497;27;20039;-76
2022/10/02 00:42:46;;;;;;;22.85;4.50;;;14.00;99.90;;;;;;5087231;28;20329;-76
2022/10/02 00:45:37;;;;;;;17.92;4.03;;;13.90;99.90;;;;;;5119214;28;20081;-76
2022/10/02 00:48:27;;;;;;;8.70;3.08;;;13.80;99.90;;;;;;5118687;28;20457;-76
2022/10/02 00:51:52;;;;;;;23.27;5.18;;;13.80;99.90;;;;;;5119152;28;20040;-76
2022/10/02 00:54:45;;;;;;;14.15;3.60;;;13.80;99.90;;;;;;5056171;28;20041;-76
2022/10/02 00:57:28;;;;;;;12.75;2.95;;;13.80;99.90;;;;;;5039519;28;20469;-76
2022/10/02 01:00:18;;;;;;;12.45;2.70;;;13.90;99.90;;;;;;5098834;28;20428;-76
2022/10/02 01:03:04;;;;;;;13.93;2.78;;;13.90;99.90;;;;;;5118512;28;20075;-76
2022/10/02 01:05:30;;;;;;;13.73;3.03;;;13.90;99.90;;;;;;5117132;28;20118;-76
2022/10/02 01:07:56;;;;;;;6.78;1.85;;;13.80;99.90;;;;;;5117449;28;20078;-76
2022/10/02 01:10:26;;;;;;;9.10;2.47;;;13.80;99.90;;;;;;5118441;28;20039;-76
2022/10/02 01:12:54;;;;;;;9.77;2.65;;;13.80;99.90;;;;;;5118556;28;20127;-76
2022/10/02 01:15:22;;;;;;;13.80;2.88;;;13.80;99.90;;;;;;5117322;28;20043;-76
2022/10/02 01:17:50;;;;;;;11.73;3.22;;;13.70;99.90;;;;;;5118555;28;20075;-76
2022/10/02 01:20:30;;;;;;;24.02;3.75;;;13.60;99.90;;;;;;5117230;28;20126;-76
2022/10/02 01:23:21;;;;;;;14.93;2.95;;;13.60;99.90;;;;;;5117217;28;20047;-76
2022/10/02 01:25:47;;;;;;;13.68;3.20;;;13.40;99.90;;;;;;5100089;28;20040;-76
2022/10/02 01:28:13;;;;;;;19.42;3.60;;;13.30;99.90;;;;;;5117065;28;20045;-76
2022/10/02 01:30:42;;;;;;;18.45;3.63;;;13.30;99.90;;;;;;5117054;28;20124;-76
2022/10/02 01:33:11;;;;;;;31.77;4.30;;;13.20;99.90;;;;;;5118283;28;20039;-76
2022/10/02 01:35:38;;;;;;;26.13;4.55;;;13.20;99.90;;;;;;5117849;28;20039;-76
2022/10/02 01:38:10;;;;;;;25.48;3.90;;;13.20;99.90;;;;;;5116858;28;20424;-76
2022/10/02 01:40:38;;;;;;;12.57;2.50;;;13.10;99.90;;;;;;5116844;28;20447;-76
2022/10/02 01:43:13;;;;;;;24.55;4.18;;;13.20;99.90;;;;;;5116411;28;20050;-76
2022/10/02 01:46:06;;;;;;;19.15;3.10;;;13.30;99.90;;;;;;5116784;28;20088;-76
2022/10/02 01:48:34;;;;;;;12.95;2.80;;;13.30;99.90;;;;;;5116689;28;20058;-76
2022/10/02 01:51:28;;;;;;;23.20;3.45;;;13.30;99.90;;;;;;5151320;27;20191;-76
2022/10/02 01:54:18;;;;;;;15.65;2.78;;;13.50;99.90;;;;;;5116641;28;20042;-76
2022/10/02 01:57:03;;;;;;;11.00;1.92;;;13.50;99.90;;;;;;5116519;28;20047;-76
2022/10/02 01:59:34;;;;;;;10.88;2.50;;;13.60;99.90;;;;;;5116504;28;20043;-76
2022/10/02 02:02:06;;;;;;;23.60;2.80;;;13.70;99.90;;;;;;5150965;27;20044;-76
2022/10/02 02:04:53;;;;;;;31.23;3.50;;;13.70;99.90;;;;;;5150834;27;20039;-76
2022/10/02 02:07:42;;;;;;;23.83;3.47;;;13.70;99.90;;;;;;5117054;28;20421;-76
2022/10/02 02:10:15;;;;;;;20.30;3.17;;;13.60;99.90;;;;;;5117712;28;20036;-76
2022/10/02 02:12:47;;;;;;;22.80;3.53;;;13.60;99.90;;;;;;5117637;28;20078;-76
2022/10/02 02:15:21;;;;;;;26.60;3.72;;;13.60;99.90;;;;;;5117337;27;20332;-76
2022/10/02 02:18:11;;;;;;;21.50;3.63;;;13.60;99.90;;;;;;5150914;27;20329;-76
2022/10/02 02:20:50;;;;;;;14.75;2.60;;;13.60;99.90;;;;;;5116207;28;20086;-76
2022/10/02 02:23:27;;;;;;;21.63;3.22;;;13.50;99.90;;;;;;5117381;28;20043;-76
2022/10/02 02:25:59;;;;;;;14.70;2.75;;;13.50;99.90;;;;;;5117374;28;20092;-76
2022/10/02 02:28:28;;;;;;;20.63;3.10;;;13.50;99.90;;;;;;5117149;28;20067;-76
2022/10/02 02:30:55;;;;;;;19.42;2.75;;;13.50;99.90;;;;;;5116381;28;20040;-76
2022/10/02 02:33:37;;;;;;;18.02;2.72;;;13.50;99.90;;;;;;5117304;28;20050;-76
2022/10/02 02:36:08;;;;;;;17.67;3.38;;;13.50;99.90;;;;;;5116844;28;20040;-76
2022/10/02 02:38:43;;;;;;;17.95;2.58;;;13.60;99.90;;;;;;5117343;28;20040;-76
2022/10/02 02:41:12;;;;;;;14.65;2.70;;;13.50;99.90;;;;;;5117343;28;20075;-76
2022/10/02 02:44:02;;;;;;;7.43;1.83;;;13.40;99.90;;;;;;5117159;28;20031;-76
2022/10/02 02:47:03;;;;;;;24.15;2.95;;;13.40;99.90;;;;;;5103890;28;20134;-76
2022/10/02 02:49:38;;;;;;;19.75;3.75;;;13.30;99.90;;;;;;5115931;28;20066;-76
2022/10/02 02:52:08;;;;;;;24.95;4.18;;;13.30;99.90;;;;;;5117207;28;20047;-76
2022/10/02 02:54:42;;;;;;;18.33;2.28;;;13.30;99.90;;;;;;5118575;28;20483;-76
2022/10/02 02:57:09;;;;;;;22.95;3.20;;;13.30;99.90;;;;;;5121084;28;20412;-76
2022/10/02 02:59:37;;;;;;;19.65;3.30;;;13.40;99.90;;;;;;5119972;28;20035;-76
2022/10/02 03:02:03;;;;;;;16.90;3.55;;;13.50;99.90;;;;;;5121161;28;20035;-76
2022/10/02 03:04:29;;;;;;;18.13;2.72;;;13.50;99.90;;;;;;5154342;27;20436;-76
2022/10/02 03:07:00;;;;;;;27.58;3.20;;;13.50;99.90;;;;;;5120496;28;20244;-76
2022/10/02 03:09:28;;;;;;;17.92;3.28;;;13.50;99.90;;;;;;5119811;28;20044;-76
2022/10/02 03:12:09;;;;;;;21.08;3.15;;;13.40;99.90;;;;;;5102975;28;20424;-76
2022/10/02 03:14:59;;;;;;;12.75;2.78;;;13.50;99.90;;;;;;5154410;27;20325;-76
2022/10/02 03:18:01;;;;;;;15.80;3.13;;;13.40;99.90;;;;;;5119732;28;20432;-76
2022/10/02 03:20:47;;;;;;;22.25;3.28;;;13.30;99.90;;;;;;5120921;28;20043;-76
2022/10/02 03:23:32;;;;;;;17.52;2.65;;;13.40;99.90;;;;;;5119664;28;20075;-76
2022/10/02 03:26:11;;;;;;;24.88;3.90;;;13.20;99.90;;;;;;5120850;27;20047;-76
2022/10/02 03:28:46;;;;;;;22.35;3.33;;;13.30;99.90;;;;;;5119469;28;20040;-76
2022/10/02 03:31:14;;;;;;;18.08;2.80;;;13.20;99.90;;;;;;5119559;28;20118;-76
2022/10/02 03:33:42;;;;;;;21.33;3.15;;;13.30;99.90;;;;;;5120660;28;20043;-76
2022/10/02 03:36:10;;;;;;;21.52;2.92;;;13.30;99.90;;;;;;5119867;28;20039;-76
2022/10/02 03:38:37;;;;;;;13.50;2.60;;;13.20;99.90;;;;;;5102234;28;20047;-76
2022/10/02 03:41:03;;;;;;;14.20;2.67;;;13.20;99.90;;;;;;5119244;28;20084;-76
2022/10/02 03:43:29;;;;;;;15.98;3.13;;;13.30;99.90;;;;;;5119431;28;20040;-76
2022/10/02 03:45:55;;;;;;;25.58;3.20;;;13.40;99.90;;;;;;5120091;28;20447;-76
2022/10/02 03:48:21;;;;;;;18.70;2.83;;;13.40;99.90;;;;;;5120028;27;20138;-76
2022/10/02 03:50:49;;;;;;;16.45;3.15;;;13.30;99.90;;;;;;5119325;28;20034;-76
2022/10/02 03:53:19;;;;;;;25.33;3.00;;;13.30;99.90;;;;;;5119935;28;20411;-76
2022/10/02 03:55:51;;;;;;;19.33;2.83;;;13.30;99.90;;;;;;5120265;28;20036;-76
2022/10/02 03:58:17;;;;;;;10.55;2.42;;;13.40;99.90;;;;;;5119924;28;20126;-76
2022/10/02 04:01:03;;;;;;;17.73;3.92;;;13.40;99.90;;;;;;5153163;27;20416;-76
2022/10/02 04:03:47;;;;;;;21.83;3.57;;;13.40;99.90;;;;;;5119110;28;20054;-76
2022/10/02 04:06:27;;;;;;;13.02;2.45;;;13.40;99.90;;;;;;5118974;28;20457;-76
2022/10/02 04:09:13;;;;;;;25.35;3.63;;;13.30;99.90;;;;;;5119036;28;20032;-76
2022/10/02 04:11:42;;;;;;;;;;;13.40;99.90;;;;;;5119102;28;20040;-76
2022/10/02 04:14:27;;;;;;;29.42;3.97;;;13.30;99.90;;;;;;5119885;28;20225;-76
2022/10/02 04:17:10;;;;;;;16.30;3.28;;;13.40;99.90;;;;;;5119837;27;20040;-76
2022/10/02 04:19:56;;;;;;;24.70;2.95;;;13.30;99.90;;;;;;5101520;28;20092;-76
2022/10/02 04:22:39;;;;;;;16.77;3.05;;;13.30;99.90;;;;;;5119719;28;20071;-76
2022/10/02 04:25:19;;;;;;;27.48;3.47;;;13.30;99.90;;;;;;5118340;28;20039;-76
2022/10/02 04:27:51;;;;;;;23.52;3.55;;;13.30;99.90;;;;;;5101263;28;20417;-76
2022/10/02 04:30:18;;;;;;;24.10;3.70;;;13.20;99.90;;;;;;5119509;28;20040;-76
2022/10/02 04:32:44;;;;;;;25.95;3.13;;;13.20;99.90;;;;;;5118440;28;20047;-75
2022/10/02 04:35:36;;;;;;;15.57;2.67;;;13.10;99.90;;;;;;5119081;28;20329;-76
2022/10/02 04:38:23;;;;;;;28.52;3.92;;;13.10;99.90;;;;;;5119494;28;20043;-75
2022/10/02 04:40:52;;;;;;;26.92;3.53;;;13.20;99.90;;;;;;5118081;28;20047;-75
2022/10/02 04:43:55;;;;;;;15.57;3.70;;;13.00;99.90;;;;;;5117981;28;20048;-76
2022/10/02 04:46:54;;;;;;;23.98;3.20;;;13.00;99.90;;;;;;5119224;28;20039;-76
2022/10/02 04:49:44;;;;;;;27.80;3.15;;;12.90;99.90;;;;;;5152297;27;20047;-76
2022/10/02 04:52:49;;;;;;;17.02;3.65;;;12.90;99.90;;;;;;5117832;28;20032;-75
2022/10/02 04:55:36;;;;;;;22.35;3.00;;;12.90;99.90;;;;;;5100326;28;20328;-75
2022/10/02 04:58:12;;;;;;;31.52;3.45;;;12.90;99.90;;;;;;5118912;28;20035;-75
2022/10/02 05:00:52;;;;;;;28.00;3.15;;;13.00;99.90;;;;;;5118464;28;20071;-76
2022/10/02 05:03:35;;;;;;;20.27;3.50;;;12.90;99.90;;;;;;5118536;28;20044;-76
2022/10/02 05:06:29;;;;;;;25.45;3.03;;;12.80;99.90;;;;;;5151313;27;20042;-76
2022/10/02 05:09:18;;;;;;;23.05;3.42;;;12.90;99.90;;;;;;5117737;28;20472;-76
2022/10/02 05:11:56;;;;;;;18.30;2.40;;;12.90;99.90;;;;;;5117123;28;20424;-76
2022/10/02 05:14:25;;;;;;;33.78;4.22;;;12.70;99.90;;;;;;5151398;27;20055;-76
2022/10/02 05:17:17;;;;;;;18.98;3.55;;;12.80;99.90;;;;;;5151278;27;20100;-75
2022/10/02 05:19:46;;;;;;;18.20;3.60;;;12.90;99.90;;;;;;5151375;27;20075;-76
2022/10/02 05:22:27;;;;;;;12.90;2.67;;;12.90;99.90;;;;;;5118711;28;20126;-76
2022/10/02 05:25:08;;;;;;;21.77;3.40;;;12.90;99.90;;;;;;5118479;28;20081;-76
2022/10/02 05:27:42;;;;;;;19.35;3.53;;;12.90;99.90;;;;;;5117417;28;20044;-75
2022/10/02 05:30:12;;;;;;;15.88;2.47;;;12.90;99.90;;;;;;5100030;28;20103;-76
2022/10/02 05:33:16;;;;;;;18.30;2.83;;;13.00;99.90;;;;;;5117347;28;20112;-76
2022/10/02 05:35:59;;;;;;;18.38;2.80;;;12.90;99.90;;;;;;5117542;28;20091;-76
2022/10/02 05:38:44;;;;;;;21.95;2.95;;;12.90;99.90;;;;;;5151353;27;20096;-76
2022/10/02 05:41:40;;;;;;;22.63;2.97;;;13.00;99.90;;;;;;5156284;27;20899;-74
2022/10/02 05:44:21;;;;;;;21.00;3.42;;;13.00;99.90;;;;;;5154664;27;20055;-73
2022/10/02 05:46:55;;;;;;;17.60;2.88;;;13.00;99.90;;;;;;5155951;27;20038;-76
2022/10/02 05:49:45;;;;;;;17.35;3.10;;;13.00;99.90;;;;;;5154563;27;20050;-76
2022/10/02 05:52:18;;;;;;;16.20;2.60;;;12.90;99.90;;;;;;5155841;27;20031;-76
2022/10/02 05:54:54;;;;;;;16.92;2.75;;;12.80;99.90;;;;;;5155560;27;20121;-75
2022/10/02 05:57:20;;;;;;;19.67;4.22;;;12.80;99.90;;;;;;5155726;27;20038;-75
2022/10/02 05:59:57;;;;;;;18.30;3.33;;;12.80;99.90;;;;;;5154221;27;20047;-75
2022/10/02 06:02:43;;;;;;;19.35;3.15;;;12.80;99.90;;;;;;5155583;27;20039;-76
2022/10/02 06:05:44;;;;;;;18.90;3.67;;;12.80;99.90;;;;;;5154291;27;20042;-76
2022/10/02 06:08:14;;;;;;;19.35;2.55;;;12.90;99.90;;;;;;5110678;27;20347;-76
2022/10/02 06:10:53;;;;;;;22.75;3.15;;;12.90;99.90;;;;;;5155465;27;20038;-76
2022/10/02 06:13:48;;;;;;;14.93;2.30;;;13.00;99.90;;;;;;5136842;27;20043;-76
2022/10/02 06:16:22;;;;;;;19.20;2.10;;;12.90;99.90;;;;;;5148708;27;20105;-76
2022/10/02 06:18:55;;;;;;;15.15;2.88;;;13.00;99.90;;;;;;5154891;27;20400;-76
2022/10/02 06:21:30;;;;;;;14.70;2.25;;;13.00;99.90;;;;;;5155266;27;20416;-76
2022/10/02 06:24:01;;;;;;;10.52;2.13;;;13.00;99.90;;;;;;5153925;27;20043;-76
2022/10/02 06:26:51;;;;;;;25.65;2.50;;;13.10;99.90;;;;;;5155181;27;20109;-76
2022/10/02 06:29:30;;;;;;;22.98;2.40;;;13.10;99.90;;;;;;5153744;27;20428;-76
2022/10/02 06:32:34;;;;;;;14.05;1.98;;;13.10;99.90;;;;;;5155072;27;20031;-76
2022/10/02 06:35:00;;;;;;;26.45;2.85;;;13.20;99.90;;;;;;5154983;27;20382;-76
2022/10/02 06:37:38;;;;;;;15.13;2.40;;;13.10;99.90;;;;;;5154527;27;20038;-76
2022/10/02 06:40:21;;;;;;;13.80;1.58;;;13.20;99.90;;;;;;5153406;27;20051;-76
2022/10/02 06:43:17;;;;;;;27.95;3.20;;;13.20;99.90;;;;;;5154554;27;20125;-76
2022/10/02 06:45:59;;;;;;;25.10;2.95;;;13.30;99.90;;;;;;5153528;27;20039;-75
2022/10/02 06:48:47;;;;;;;18.90;2.60;;;13.20;99.90;;;;;;5154528;27;20035;-75
2022/10/02 06:51:33;;;;;;;29.73;3.47;;;13.20;99.90;;;;;;5148029;27;20035;-75
2022/10/02 06:54:23;;;;;;;19.90;2.65;;;13.30;99.90;;;;;;5140893;27;20047;-75
2022/10/02 06:57:08;;;;;;;19.88;3.10;;;13.30;99.90;;;;;;5140762;27;20051;-75
2022/10/02 06:59:54;;;;;;;25.23;3.30;;;13.40;99.90;;;;;;5140638;27;20210;-75
2022/10/02 07:02:51;;;;;;;19.75;3.50;;;13.40;99.90;;;;;;5139648;27;20096;-75
2022/10/02 07:05:32;;;;;;;21.08;2.92;;;13.40;99.90;;;;;;5140649;27;20092;-75
2022/10/02 07:08:10;;;;;;;25.45;3.92;;;13.40;99.90;;;;;;5173981;27;20039;-75
2022/10/02 07:10:42;;;;;;;19.50;2.72;;;13.30;99.90;;;;;;5140222;27;20438;-76
2022/10/02 07:13:13;;;;;;;25.80;3.00;;;13.40;99.90;;;;;;5140202;27;20455;-75
2022/10/02 07:15:48;;;;;;;22.50;3.08;;;13.40;99.90;;;;;;5121932;27;20047;-75
2022/10/02 07:18:55;;;;;;;25.67;2.60;;;13.30;99.90;;;;;;5139349;27;20047;-75
2022/10/02 07:21:37;;;;;;;18.33;2.88;;;13.40;99.90;;;;;;5134866;27;20048;-75
2022/10/02 07:24:40;;;;;;;15.38;2.70;;;13.50;99.90;;;;;;5121825;27;20078;-75
2022/10/02 07:27:25;;;;;;;22.17;2.90;;;13.60;99.90;;;;;;5138840;27;20058;-75
2022/10/02 07:30:11;;;;;;;21.92;2.90;;;13.50;99.90;;;;;;5138858;27;20416;-75
2022/10/02 07:32:50;;;;;;;20.17;3.25;;;13.60;99.90;;;;;;5140115;27;20043;-75
2022/10/02 07:35:31;;;;;;;25.60;2.97;;;13.60;99.90;;;;;;5140063;27;20038;-76
2022/10/02 07:38:19;;;;;;;22.67;2.50;;;13.70;99.90;;;;;;5138673;27;20051;-76
2022/10/02 07:40:46;;;;;;;23.60;2.50;;;13.60;99.90;;;;;;5139431;27;20051;-75
2022/10/02 07:43:30;;;;;;;27.27;3.22;;;13.70;99.90;;;;;;5121360;27;20039;-76
2022/10/02 07:46:22;;;;;;;17.58;2.67;;;13.80;99.90;;;;;;5173085;27;20126;-75
2022/10/02 07:49:24;;;;;;;16.75;2.20;;;13.80;99.90;;;;;;5121527;27;20320;-75
2022/10/02 07:52:11;;;;;;;24.50;2.28;;;13.80;99.90;;;;;;5139671;27;20049;-75
2022/10/02 07:54:59;;;;;;;17.83;2.25;;;13.90;99.90;;;;;;5138267;27;20431;-75
2022/10/02 07:57:37;;;;;;;21.63;3.33;;;13.90;99.90;;;;;;5138485;27;20400;-72
2022/10/02 08:00:15;;;;;;;21.40;3.42;;;13.90;99.90;;;;;;5139488;27;20047;-70
2022/10/02 08:03:00;;;;;;;20.42;2.50;;;13.90;99.90;;;;;;5138607;27;20096;-72
2022/10/02 08:05:38;;;;;;;18.20;3.38;;;13.90;99.90;;;;;;5141258;27;20039;-72
2022/10/02 08:08:28;;;;;;;23.80;3.08;;;13.80;99.90;;;;;;5139478;27;20438;-71
2022/10/02 08:11:11;;;;;;;21.27;2.80;;;13.90;99.90;;;;;;5139342;27;20302;-71
2022/10/02 08:13:46;;;;;;;25.30;4.70;;;13.90;99.90;;;;;;5139000;27;20416;-70
2022/10/02 08:16:13;;;;;;;24.38;2.97;;;13.90;99.90;;;;;;5139220;27;20039;-70
2022/10/02 08:18:45;;;;;;;17.10;2.80;;;14.10;99.90;;;;;;5139181;27;20043;-70
2022/10/02 08:21:15;;;;;;;26.13;2.67;;;14.20;99.90;;;;;;5139040;27;20043;-70
2022/10/02 08:24:03;;;;;;;17.77;2.83;;;14.10;99.90;;;;;;5139089;27;20069;-70
2022/10/02 08:26:54;;;;;;;22.70;2.90;;;14.20;99.90;;;;;;5139023;27;20043;-70
2022/10/02 08:29:43;;;;;;;18.38;3.30;;;14.10;99.90;;;;;;5138981;27;20039;-70
2022/10/02 08:32:13;;;;;;;20.75;2.67;;;13.90;99.90;;;;;;5138669;27;20486;-72
2022/10/02 08:34:40;;;;;;;22.50;3.15;;;13.80;99.90;;;;;;5138516;27;20424;-69
2022/10/02 08:37:18;;;;;;;16.67;3.25;;;13.80;99.90;;;;;;5138042;27;20067;-70
2022/10/02 08:40:00;;;;;;;24.98;3.05;;;13.70;99.90;;;;;;5138149;27;20062;-70
2022/10/02 08:42:43;;;;;;;22.17;3.30;;;13.80;99.90;;;;;;5138716;27;20039;-70
2022/10/02 08:45:41;;;;;;;27.38;3.25;;;13.80;99.90;;;;;;5137344;27;20047;-70
2022/10/02 08:48:38;;;;;;;20.70;3.17;;;13.70;99.90;;;;;;5109141;27;20043;-70
2022/10/02 08:51:43;;;;;;;24.45;3.83;;;13.80;99.90;;;;;;5138642;27;20118;-70
2022/10/02 08:54:46;;;;;;;22.90;4.45;;;13.90;99.90;;;;;;5138560;27;20043;-70
2022/10/02 08:57:51;;;;;;;19.15;2.95;;;14.10;99.90;;;;;;5138491;27;20047;-71
2022/10/02 09:00:52;;;;;;;18.52;2.92;;;14.20;99.90;;;;;;5137024;27;20079;-71
2022/10/02 09:03:44;;;;;;;20.52;2.72;;;14.10;99.90;;;;;;5138357;27;20074;-71
2022/10/02 09:06:31;;;;;;;15.10;2.67;;;14.20;99.90;;;;;;5137672;27;20091;-71
2022/10/02 09:09:15;;;;;;;;;;;14.30;99.90;;;;;;5138790;27;20114;-71
2022/10/02 09:12:00;;;;;;;14.23;2.45;;;14.50;99.90;;;;;;5138232;27;19916;-72
2022/10/02 09:14:48;;;;;;;16.73;2.95;;;14.50;99.90;;;;;;5137916;27;20061;-71
2022/10/02 09:17:32;;;;;;;15.38;2.25;;;14.40;99.90;;;;;;5138223;27;20070;-72
2022/10/02 09:20:22;;;;;;;13.48;2.60;;;14.50;99.90;;;;;;5138030;27;20039;-71
2022/10/02 09:23:19;;;;;;;16.27;2.28;;;14.70;99.90;;;;;;5137057;27;20031;-71
2022/10/02 09:26:50;;;;;;;10.23;2.42;;;14.90;99.90;;;;;;5138006;27;20042;-72
2022/10/02 09:29:43;;;;;;;16.25;2.75;;;14.90;99.90;;;;;;5074710;28;20048;-71
2022/10/02 09:32:33;;;;;;;11.63;2.17;;;15.10;99.90;;;;;;5074616;28;20496;-72
2022/10/02 09:35:12;;;;;;;11.80;2.00;;;15.20;99.90;;;;;;5137950;27;20046;-71
2022/10/02 09:38:20;;;;;;;16.17;2.30;;;15.20;99.90;;;;;;5137547;27;20047;-70
2022/10/02 09:40:54;;;;;;;10.60;1.90;;;15.20;99.90;;;;;;5137273;28;20058;-71
2022/10/02 09:43:50;;;;;;;12.88;1.67;;;15.30;99.90;;;;;;5137778;28;20085;-69
2022/10/02 09:46:18;;;;;;;19.42;2.83;;;15.60;99.90;;;;;;5137820;27;20039;-71
2022/10/02 09:49:10;;;;;;;18.15;2.50;;;15.90;99.90;;;;;;5137814;27;20065;-71
2022/10/02 09:52:00;;;;;;;12.57;2.17;;;16.20;99.90;;;;;;5137766;27;20039;-74
2022/10/02 09:54:35;;;;;;;13.55;2.30;;;16.10;99.90;;;;;;5137718;28;20035;-74
2022/10/02 09:57:06;;;;;;;12.13;2.03;;;16.00;99.90;;;;;;5137738;27;20085;-72
2022/10/02 10:00:04;;;;;;;22.17;2.63;;;16.00;99.90;;;;;;5137590;27;20045;-72
2022/10/02 10:02:52;;;;;;;13.38;1.95;;;16.10;99.90;;;;;;5108925;28;20043;-72
2022/10/02 10:05:52;;;;;;;14.80;1.73;;;16.00;99.90;;;;;;5136330;28;20043;-72
2022/10/02 10:08:27;;;;;;;16.92;2.75;;;16.20;99.90;;;;;;5137636;27;20065;-72
2022/10/02 10:11:09;;;;;;;14.50;2.03;;;16.60;99.90;;;;;;5137866;27;20115;-71
2022/10/02 10:14:02;;;;;;;13.68;2.08;;;16.70;99.90;;;;;;5137617;27;20122;-72
2022/10/02 10:16:31;;;;;;;11.43;1.75;;;16.30;99.90;;;;;;5136489;28;20332;-72
2022/10/02 10:19:33;;;;;;;10.23;1.52;;;16.40;99.90;;;;;;5137156;28;20451;-72
2022/10/02 10:22:26;;;;;;;21.95;2.65;;;16.60;99.90;;;;;;5137373;28;20043;-72
2022/10/02 10:25:11;;;;;;;18.70;2.10;;;16.70;99.90;;;;;;5136078;28;20097;-72
2022/10/02 10:27:58;;;;;;;11.32;1.75;;;17.00;99.90;;;;;;5140392;27;20039;-70
2022/10/02 10:31:01;;;;;;;15.10;2.00;;;16.90;99.90;;;;;;5140959;27;20042;-74
2022/10/02 10:33:31;;;;;;;14.95;1.65;;;17.20;99.90;;;;;;5141224;27;20084;-72
2022/10/02 10:38:31;;;;;;;17.65;2.30;;;17.50;99.90;;;;;;5140440;27;20322;-71
2022/10/02 10:39:20;;;;;;;18.48;2.53;;;17.50;99.90;;;;;;5140918;27;20374;-71
2022/10/02 10:41:56;;;;;;;22.13;2.42;;;17.10;99.90;;;;;;5141028;27;20047;-71
2022/10/02 10:44:35;;;;;;;16.67;2.47;;;16.70;99.90;;;;;;5141119;27;20035;-73
2022/10/02 10:47:19;;;;;;;14.43;1.90;;;16.50;99.90;;;;;;5139686;27;20339;-73
2022/10/02 10:50:03;;;;;;;17.17;2.58;;;16.30;99.90;;;;;;5140921;27;20067;-74
2022/10/02 10:52:53;;;;;;;22.38;3.03;;;16.40;99.90;;;;;;5140923;27;20095;-73
2022/10/02 10:55:28;;;;;;;19.35;2.20;;;16.40;99.90;;;;;;5140488;27;20091;-73
2022/10/02 10:58:20;;;;;;;17.92;2.65;;;16.20;99.90;;;;;;5140732;27;20046;-74
2022/10/02 11:01:07;;;;;;;11.27;2.00;;;16.20;99.90;;;;;;5139671;27;20036;-77
2022/10/02 11:03:50;;;;;;;17.88;2.22;;;16.50;99.90;;;;;;5141370;27;20035;-75
2022/10/02 11:06:31;;;;;;;13.07;1.58;;;16.60;99.90;;;;;;5140633;27;20035;-74
2022/10/02 11:09:21;;;;;;;14.05;1.77;;;16.90;99.90;;;;;;5140329;27;20043;-72
2022/10/02 11:11:58;;;;;;;19.30;1.77;;;17.00;99.90;;;;;;5140484;27;20035;-75
2022/10/02 11:14:50;;;;;;;25.25;3.05;;;17.30;99.90;;;;;;5140475;27;20035;-72
2022/10/02 11:17:52;;;;;;;13.55;2.17;;;17.40;99.90;;;;;;5140607;27;20035;-72
2022/10/02 11:20:43;;;;;;;8.50;1.77;;;17.60;99.90;;;;;;5140010;27;20031;-72
2022/10/02 11:23:18;;;;;;;13.73;2.20;;;17.80;99.90;;;;;;5138932;27;20055;-71
2022/10/02 11:25:59;;;;;;;17.05;1.80;;;17.50;99.90;;;;;;5140020;27;20438;-71
2022/10/02 11:28:46;;;;;;;14.63;2.70;;;17.30;99.90;;;;;;5138946;27;20451;-71
2022/10/02 11:31:17;;;;;;;;;;;17.50;99.90;;;;;;5140658;27;20130;-84
2022/10/02 11:34:00;;;;;;;15.98;2.10;;;17.30;99.90;;;;;;5138692;27;19915;-86
2022/10/02 11:36:58;;;;;;;18.88;1.70;;;17.00;99.90;;;;;;5121421;27;20328;-71
2022/10/02 11:39:53;;;;;;;13.18;2.08;;;17.10;99.90;;;;;;5139693;27;20104;-71
2022/10/02 11:42:43;;;;;;;17.52;2.20;;;17.30;99.90;;;;;;5139661;27;20424;-71
2022/10/02 11:45:36;;;;;;;12.13;1.90;;;17.00;99.90;;;;;;5139816;27;20039;-71
2022/10/02 11:48:28;;;;;;;13.80;1.80;;;16.90;99.90;;;;;;5138880;27;20042;-71
2022/10/02 11:51:09;;;;;;;19.50;2.20;;;17.30;99.90;;;;;;5139758;27;20039;-72
2022/10/02 11:53:46;;;;;;;19.00;2.30;;;17.70;99.90;;;;;;5139431;27;20039;-72
2022/10/02 11:56:33;;;;;;;15.48;2.90;;;17.80;99.90;;;;;;5121145;27;20043;-71
2022/10/02 11:59:08;;;;;;;;;;;18.30;99.90;;;;;;5140736;27;20050;-71
2022/10/02 12:01:46;;;;;;;16.05;2.55;;;18.40;99.90;;;;;;5141461;27;19920;-70
2022/10/02 12:04:30;;;;;;;13.10;1.80;;;18.80;99.90;;;;;;5139513;27;20034;-70
2022/10/02 12:07:17;;;;;;;17.63;1.85;;;18.50;99.90;;;;;;5138943;27;20031;-78
2022/10/02 12:09:48;;;;;;;17.45;1.98;;;18.20;99.90;;;;;;5139374;27;20079;-76
2022/10/02 12:12:26;;;;;;;15.73;1.95;;;18.00;99.90;;;;;;5139869;27;20091;-71
2022/10/02 12:15:07;;;;;;;15.13;2.55;;;17.70;99.90;;;;;;5138976;27;20035;-71
2022/10/02 12:17:52;;;;;;;16.52;1.58;;;17.40;99.90;;;;;;5139209;27;20118;-72
2022/10/02 12:26:58;;;;;;;12.68;1.92;;;17.90;99.90;;;;;;5137962;27;20047;-72
2022/10/02 12:30:08;;;;;;;11.25;2.03;;;18.00;99.90;;;;;;5138656;27;20046;-72
2022/10/02 12:33:08;;;;;;;19.90;1.55;;;17.70;99.90;;;;;;5124856;27;20051;-72
2022/10/02 12:35:50;;;;;;;13.38;2.13;;;17.60;99.90;;;;;;5131291;27;20436;-72
2022/10/02 12:38:34;;;;;;;14.43;1.90;;;17.50;99.90;;;;;;5138206;27;20039;-72
2022/10/02 12:41:16;;;;;;;14.40;1.63;;;17.30;99.90;;;;;;5138234;27;20066;-72
2022/10/02 12:44:42;;;;;;;11.68;2.00;;;17.10;99.90;;;;;;5138714;27;20039;-72
2022/10/02 12:47:38;;;;;;;14.75;2.22;;;17.20;99.90;;;;;;5058583;28;20072;-72
2022/10/02 12:50:23;;;;;;;19.60;2.47;;;18.10;99.90;;;;;;5074807;28;20040;-72
2022/10/02 12:52:49;;;;;;;14.63;1.98;;;18.80;99.90;;;;;;5127008;27;20047;-72
2022/10/02 12:56:03;;;;;;;13.27;2.42;;;19.40;99.90;;;;;;5138552;27;20376;-72
2022/10/02 12:58:48;;;;;;;15.75;1.55;;;19.90;99.90;;;;;;5082681;27;20059;-72
2022/10/02 13:01:36;;;;;;;15.73;2.00;;;19.40;99.90;;;;;;5138020;27;20050;-72
2022/10/02 13:04:26;;;;;;;9.93;1.40;;;19.00;99.90;;;;;;5138353;27;20050;-72
2022/10/02 13:07:14;;;;;;;12.63;1.88;;;18.50;99.90;;;;;;5137896;27;20042;-72
2022/10/02 13:09:48;;;;;;;14.25;1.90;;;18.00;99.90;;;;;;5137564;27;20058;-72
2022/10/02 13:12:32;;;;;;;15.77;2.15;;;18.00;99.90;;;;;;5138216;27;20077;-72
2022/10/02 13:15:20;;;;;;;17.13;2.10;;;18.30;99.90;;;;;;5138258;27;20038;-72
2022/10/02 13:18:19;;;;;;;14.38;2.05;;;18.70;99.90;;;;;;5138167;27;20113;-68
2022/10/02 13:21:05;;;;;;;12.10;1.70;;;18.80;99.90;;;;;;5138037;27;20054;-69
2022/10/02 13:23:45;;;;;;;12.80;2.20;;;18.70;99.90;;;;;;5138278;27;20043;-88
2022/10/02 13:26:35;;;;;;;16.13;1.90;;;18.20;99.90;;;;;;5171444;27;20047;-71
2022/10/02 13:29:28;;;;;;;12.68;1.70;;;18.00;99.90;;;;;;5137657;27;20039;-69
2022/10/02 13:32:21;;;;;;;22.17;2.20;;;18.10;99.90;;;;;;5136939;28;20400;-70
2022/10/02 13:35:05;;;;;;;15.82;1.85;;;17.90;99.90;;;;;;5137806;27;20031;-72
2022/10/02 13:37:48;;;;;;;11.18;2.13;;;17.60;99.90;;;;;;5136420;27;20320;-72
2022/10/02 13:40:23;;;;;;;14.90;2.28;;;17.50;99.90;;;;;;5137455;27;20061;-73
2022/10/02 13:43:23;;;;;;;15.60;2.30;;;17.50;99.90;;;;;;5138001;27;20122;-72
2022/10/02 13:46:02;;;;;;;15.30;2.00;;;17.30;99.90;;;;;;5137853;27;20038;-72
2022/10/02 13:48:43;;;;;;;12.77;1.90;;;17.30;99.90;;;;;;5137840;28;20053;-72
2022/10/02 13:51:26;;;;;;;13.23;1.65;;;17.30;99.90;;;;;;5137738;28;20043;-71
2022/10/02 13:53:52;;;;;;;18.83;2.15;;;17.40;99.90;;;;;;5137772;27;20035;-79
2022/10/02 13:56:36;;;;;;;22.65;2.20;;;17.40;99.90;;;;;;5137711;28;20302;-81
2022/10/02 13:59:28;;;;;;;19.58;2.10;;;17.30;99.90;;;;;;5137375;28;20525;-82
2022/10/02 14:02:15;;;;;;;14.07;1.75;;;17.00;99.90;;;;;;5139651;27;20122;-82
2022/10/02 14:04:49;;;;;;;16.45;1.95;;;16.90;99.90;;;;;;5140530;27;20047;-83